View Sortable Currents For Network
ASOSAWOSCoCoRaHSCOOPDCPISUSM
SchoolNetOtherSCANMy FavoritesBy StateRWIS
RWIS SurfaceRWIS TrafficRWIS SoilBy NWS WFOUSCRN
Select Network:
Include METARS:
Sort Order: Format:

Times shown are for timezone: America/Chicago. The local day summary is based on that timezone.
Table sorted by: (Observation Time)     Click on a column to sort it. Click on site ID for more information. You can download data from this network here and you can view daily summaries on this network.
ADD: ID Station Ob Time Present Wx Temps °F   Wind [knots] Precip Clouds
Air Hi Lo Dewp Feels RH % Alti Vsby Speed Drct Gust @ Time 1 Hour Today Level 1 Level 2 Level 3 Level 4
MVNMOUNT VERNON07:56 PM343934 27 31 75.2643 29.96 10 3N15 @ 03:44 PM0 0 OVC 1800
BLVSCOTT AFB/BELLEV07:56 PM313631 22 21 66.9517 29.98 10 12W18 @ 02:56 PM0 T OVC 2800
BMIBLOOMINGTON/NORM07:56 PM-SN273127 25 19 92.0458 29.89 8 7WNW18 @ 02:30 AMT T BKN 600 BKN 1300 OVC 1800
SQISTERLING ROCKFAL07:56 PM-SN BR252925 23 15 91.9747 29.92 3 9NNE17 @ 08:25 AMT 0.07 SCT 800 BKN 1600 OVC 2500
PRGPARIS07:55 PM323332 31 24 94.8884 29.89 10 9W20 @ 01:15 AM0 0.02 OVC 1200
MQBMACOMB MUNI07:55 PM262926 25 18 94.3506 29.96 7 7WNW23 @ 12:15 AM0 T OVC 2700
PNTPONTIAC07:55 PM-SN282828 27 28 99.1799 29.89 5 0N20 @ 12:30 AM0 BKN 1600 OVC 2500
VYSPERU07:55 PM-SN262725 24 20 94.7326 29.9 3 4N20 @ 12:15 AM0 0.03 SCT 1200 BKN 1900 OVC 2500
OLYOLNEY-NOBLE07:55 PM323632 32 23 100 29.94 7 12G17W17 @ 07:55 PM0 OVC 700
IJXJACKSONVILLE07:55 PM-SN303230 29 23 94.4459 29.94 3 6W20 @ 12:35 AM0 BKN 800 OVC 1200
1H2EFFINGHAM07:55 PM-DZ323532 32 23 97.6112 29.95 4 11G17WSW17 @ 07:55 PM0 OVC 600
SARSPARTA07:55 PM313731 25 22 77.8289 30 10 10G16W23 @ 12:35 PM0 OVC 2300
FWCFAIRFIELD07:55 PM343934 29 29 82.0258 29.94 10 5W7 @ 12:55 AM0 SCT 1900 BKN 2400 OVC 3500
IGQCHICAGO/LANSING07:55 PMUP272927 26 27 95.9515 29.88 5 0N15 @ 01:35 AM0 BKN 700 OVC 1700
TIPRANTOUL 07:55 PMBR292928 29 23 99.5918 29.88 5 5WNW19 @ 01:35 AM0 BKN 500 BKN 1000 OVC 1400
AAALincoln07:55 PM303230 29 27 94.4509 29.92 10 3WNW19 @ 12:35 AM0 SCT 700 SCT 1200 OVC 5000
CIRCairo07:55 PM374137 29 29 73.1213 29.99 10 10NNW16 @ 07:15 PM0 OVC 3400
FEPFREEPORT07:55 PM-SN222722 20 8 91.87 29.95 3 14NNE18 @ 04:55 PM0 T OVC 2700
RSVRobinson07:55 PM323331 31 24 95.6555 29.92 7 8WNW15 @ 12:15 AM0 OVC 1600
PPQPITTSFIELD07:55 PM293229 28 22 94.8172 29.96 5 6W17 @ 06:15 PM0 OVC 900
TAZTAYLORVILLE07:55 PM313231 30 21 94.8587 29.93 7 12W18 @ 12:55 AM0 T OVC 800
C09MORRIS-WASHBURN07:55 PM-SN282827 27 28 97.1557 29.88 3 0N16 @ 12:55 AM0.01 0.05 BKN 900 BKN 1400 OVC 4200
DNVDANVILLE07:55 PMBR292927 28 24 98.3754 29.84 4 4W17 @ 06:35 AM0 BKN 500 BKN 1600 OVC 3500
GBGGALESBURG07:55 PM-SN242824 23 19 95.9016 29.93 5 4WNW22 @ 04:55 AM0 0.02 OVC 9000
AJGMount Carmel07:55 PM343733 32 26 92.6697 29.92 7 9WNW15 @ 12:35 AM0 OVC 1400
DKBDE KALB07:55 PM-SN252825 24 15 94.7112 29.89 3 9N17 @ 12:55 AM0 SCT 700 OVC 2400
UGNWAUKEGAN07:55 PM-SN BR262726 22 18 83.8885 29.89 1.25 7NE20 @ 12:15 AM0.01 0.2 BKN 900 BKN 1600 OVC 2100
M30Metropolis IL07:55 PM374137 29 29 73.7004 29.98 10 9NW16 @ 07:15 PM0 SCT 2600 SCT 3500
FOAFLORA07:55 PM343834 31 26 88.2843 29.94 10 9G16WNW19 @ 06:55 PM0 OVC 1200
IKKKANKAKEE07:55 PM-RA282928 27 28 95.5708 29.88 10 0N19 @ 01:35 AM0 BKN 500 BKN 1300 OVC 2300
MWAMARION REGIONAL07:55 PM343933 26 27 74.6056 29.99 10 6NW15 @ 06:45 PM0 OVC 2600
HSBHARRISBURG07:55 PM344234 29 25 82.7134 29.97 10 12WNW21 @ 07:15 PM0 OVC 2300
SLOSALEM/LECKRONE07:55 PM333833 29 22 84.371 29.95 10 15G21WNW21 @ 07:55 PM0 OVC 1400
ENLCENTRALIA07:55 PM333833 29 21 84.6906 29.96 10 17G23WNW23 @ 07:55 PM0 BKN 1900 OVC 2500
C75LACON07:55 PMUP262826 25 26 96.3348 29.91 5 0N18 @ 05:55 AM0 BKN 600 BKN 2600 OVC 5000
I63Mount Sterling07:55 PM-SN293128 28 22 94.8055 29.94 5 6WNW17 @ 12:15 AM0 BKN 900 OVC 1600
06CChicago - Schaumburg 07:55 PM252725 23 25 92.7571 29.88 2 0N15 @ 12:15 AM0.01 0.09 BKN 700 BKN 1100 OVC 1900
RPJRochelle07:55 PM-SN242724 23 13 94.3045 29.91 3 11NNE19 @ 09:15 AM0 BKN 1900 OVC 2500
LOTROMEOVILLE/CHI07:55 PM-SN272827 26 23 95.5588 29.88 5 3NNE17 @ 10:55 AM0 0.01 OVC 700
JOTJOLIET07:55 PMRA293028 29 25 98.781 29.88 5 3N15 @ 12:35 AM0 T BKN 2300 OVC 2800
3LFLitchfield07:55 PM303230 27 19 90.6276 29.96 10 12G20W21 @ 06:35 PM0 OVC 1200
RFDROCKFORD07:54 PM-SN BR242824 20 13 83.7507 29.94 1.25 10N20 @ 04:54 PM0.01 0.27 OVC 2200
UINQUINCY07:54 PM-SN BR293127 26 21 89.1155 29.95 3 7W17 @ 12:20 AMT T SCT 800 BKN 1400 OVC 3100
PIAPEORIA07:54 PM272927 25 23 92.0458 29.91 8 3NW25 @ 12:42 AM0 0.1 BKN 1000 OVC 1900
DECDECATUR07:54 PM303130 27 22 88.4351 29.91 10 7NW20 @ 01:05 AM0 T BKN 1400 OVC 1900
MTOMATTOON/CHARLEST07:53 PM313230 31 22 100 29.89 7 9WNW20 @ 05:10 AM0 0.04 BKN 1800 BKN 2400 OVC 4200
MDWCHICAGO07:53 PM-SN BR272927 25 19 92.0458 29.88 1.5 7NE20 @ 09:53 AM0.01 0.04 FEW 700 OVC 2100
LWVLAWRENCEVILLE07:53 PM353634 30 27 81.4568 29.92 7 10W16 @ 02:10 AM0 T BKN 1500 BKN 2400 OVC 3200
CMICHAMPAIGN/URBANA07:53 PM-SN303129 28 19 92.1507 29.88 7 12W24 @ 02:48 AMT 0.02 BKN 2100 OVC 3400
CPSCAHOKIA/ST LOUIS07:53 PM313531 21 22 66.3371 29.99 10 10W20 @ 02:18 PM0 T OVC 3000
MDHCARBONDALE/MURPH07:52 PM344034 24 25 66.7246 29.98 10 12NW20 @ 04:52 PM0 T OVC 3400
PWKPALWAUKEE07:52 PM-SN BR272927 23 20 84.6589 29.9 1.75 5NE19 @ 10:15 AMT T FEW 800 OVC 2200
SPISPRINGFIELD07:52 PMBR313130 29 23 92.1817 29.93 6 7WNW20 @ 12:00 AMT 0.05 FEW 2300 OVC 2900
MLIMoline07:52 PM-SN BR282925 25 23 88.3345 29.93 1.75 4WNW23 @ 06:52 AM0.01 0.21 FEW 800 OVC 1800
DPACHICAGO/DUPAGE07:52 PM-SN272927 23 20 84.6589 29.88 6N20 @ 09:30 AM0.01 0.09 FEW 1000 OVC 2700
ARRCHICAGO/AURORA07:52 PM-SN BR262926 23 18 87.8678 29.88 2.5 7N20 @ 12:10 AMT T BKN 3600 OVC 4900
ORDCHICAGO O HARE07:51 PM-SN BR262726 24 16 92.0139 29.88 1 10NNE20 @ 12:00 AM0.01 0.19 FEW 800 OVC 1300
ALNALTON/ST LOUIS R07:47 PM303430 25 21 80.0716 29.98 10 10G18W18 @ 07:47 PM0 OVC 2400
SFYSavanna06:37 PM-SN252825 21 13 85.9603 29.93 4 11NE17 @ 05:57 PM0 T BKN 1500 OVC 3100
CULCarmi06:37 PM364134 32 27 86.593 29.91 10 11WNW16 @ 02:57 PM0 SCT 1500 OVC 2900